In Rescue
 
Open Full Screen Window  High Contrast Mode
November 20, 2019 1:59 AM EST
Weather Information
Wind Direction
  ---
Wind Speed
  00 kt (0 mph)
Wind Gust
  00 kt (0 mph)
Altimeter
30.00 in
Visibility
10 SM
Temperature
02° C
36° F
Dewpoint
00° C
32° F
Humidity
87%
Sky Condition
Overcast @ 1,900 ft
MVFR

METAR KFKS 200659Z AUTO 00000KT 10SM OVC019 02/00 A3000 RMK AO2 T00201005

FAA Disclaimer: The data displayed is for advisory purposes only and is not to be used for flight planning or operations.